Time;durP1;ratioP1;P1;durP2;ratioP2;P2;SDS_P1;SDS_P2;PMS_P1;PMS_P2;Temp;Humidity;BMP_temperature;BMP_pressure;BME280_temperature;BME280_humidity;BME280_pressure;Samples;Min_cycle;Max_cycle;Signal;HPM_P1;HPM_P2
2022/08/27 00:00:26;;;;;;;7.88;6.03;;;21.10;73.40;;;;;;5032918;28;20081;-73
2022/08/27 00:02:52;;;;;;;7.93;6.30;;;21.10;73.20;;;;;;5032984;28;20068;-74
2022/08/27 00:05:18;;;;;;;6.22;5.43;;;21.10;73.00;;;;;;5033033;28;20017;-75
2022/08/27 00:07:45;;;;;;;7.60;5.78;;;21.10;72.90;;;;;;5032899;28;20076;-74
2022/08/27 00:10:17;;;;;;;6.05;5.40;;;21.10;72.90;;;;;;5032777;28;20398;-73
2022/08/27 00:12:43;;;;;;;6.75;5.80;;;21.10;73.00;;;;;;5032963;28;20390;-74
2022/08/27 00:15:10;;;;;;;7.88;6.18;;;21.10;72.90;;;;;;5015150;28;20066;-74
2022/08/27 00:17:36;;;;;;;6.32;5.35;;;21.10;72.90;;;;;;5032828;28;20030;-74
2022/08/27 00:20:03;;;;;;;6.85;5.90;;;21.10;72.80;;;;;;5033011;28;20029;-74
2022/08/27 00:22:29;;;;;;;7.53;5.93;;;21.10;73.00;;;;;;5032841;28;20022;-73
2022/08/27 00:24:54;;;;;;;10.63;6.00;;;21.10;73.00;;;;;;5032998;28;20032;-74
2022/08/27 00:27:20;;;;;;;7.72;6.72;;;21.10;72.90;;;;;;5032760;28;20471;-74
2022/08/27 00:29:46;;;;;;;6.43;5.72;;;21.00;72.70;;;;;;5032890;28;20482;-73
2022/08/27 00:32:12;;;;;;;8.05;6.28;;;21.10;72.70;;;;;;5015034;28;20077;-74
2022/08/27 00:34:38;;;;;;;8.45;6.38;;;21.10;72.60;;;;;;5032894;28;20079;-74
2022/08/27 00:37:05;;;;;;;9.70;7.35;;;21.10;72.60;;;;;;5032811;28;20014;-74
2022/08/27 00:39:31;;;;;;;9.38;7.00;;;21.10;72.90;;;;;;5032807;28;20217;-73
2022/08/27 00:41:59;;;;;;;7.03;6.32;;;21.00;72.80;;;;;;5032846;28;20158;-73
2022/08/27 00:44:26;;;;;;;9.18;6.78;;;21.00;72.80;;;;;;5032219;28;20043;-74
2022/08/27 00:46:55;;;;;;;6.70;6.10;;;21.10;73.30;;;;;;5033424;28;20024;-73
2022/08/27 00:49:28;;;;;;;7.78;6.28;;;21.10;73.30;;;;;;5018952;28;20029;-73
2022/08/27 00:52:01;;;;;;;6.85;5.95;;;21.00;73.50;;;;;;5036694;28;20091;-73
2022/08/27 00:54:28;;;;;;;6.10;5.45;;;21.00;73.70;;;;;;5036306;28;20018;-73
2022/08/27 00:56:54;;;;;;;7.15;5.88;;;21.00;74.00;;;;;;5036382;28;20033;-73
2022/08/27 00:59:23;;;;;;;7.82;6.28;;;21.00;73.80;;;;;;5036213;28;20044;-74
2022/08/27 01:04:35;;;;;;;10.02;6.13;;;20.90;74.30;;;;;;5036171;28;20076;-73
2022/08/27 01:07:01;;;;;;;6.05;5.45;;;20.80;74.30;;;;;;5018425;28;20120;-74
2022/08/27 01:09:28;;;;;;;9.88;6.45;;;20.70;74.30;;;;;;5036213;28;20455;-74
2022/08/27 01:11:56;;;;;;;7.97;5.53;;;20.80;74.20;;;;;;5036059;28;20480;-74
2022/08/27 01:14:22;;;;;;;8.75;6.38;;;20.80;74.20;;;;;;5018299;28;20393;-74
2022/08/27 01:16:53;;;;;;;6.05;5.05;;;20.70;74.30;;;;;;5036091;28;20022;-74
2022/08/27 01:19:42;;;;;;;7.20;6.03;;;20.70;74.40;;;;;;5036022;28;20029;-73
2022/08/27 01:22:23;;;;;;;7.60;5.97;;;20.70;74.50;;;;;;5035809;28;20099;-74
2022/08/27 01:24:52;;;;;;;7.53;5.85;;;20.70;74.20;;;;;;5035943;28;20029;-74
2022/08/27 01:27:21;;;;;;;6.80;5.63;;;20.70;74.20;;;;;;5018041;28;20388;-74
2022/08/27 01:29:47;;;;;;;7.72;5.45;;;20.70;74.20;;;;;;5035796;28;20061;-74
2022/08/27 01:32:16;;;;;;;6.97;6.28;;;20.70;74.60;;;;;;5017750;28;20021;-74
2022/08/27 01:34:43;;;;;;;6.28;5.63;;;20.80;74.50;;;;;;5035737;28;20033;-73
2022/08/27 01:37:09;;;;;;;6.65;6.05;;;20.80;74.50;;;;;;5035672;28;20100;-73
2022/08/27 01:39:38;;;;;;;7.18;5.93;;;20.90;74.40;;;;;;5035585;28;20026;-73
2022/08/27 01:42:27;;;;;;;6.55;5.85;;;20.90;74.30;;;;;;5036069;28;20413;-74
2022/08/27 01:45:06;;;;;;;5.72;5.20;;;20.90;74.10;;;;;;5037137;28;20023;-75
2022/08/27 01:47:34;;;;;;;6.60;6.00;;;20.90;74.20;;;;;;5035605;28;20064;-75
2022/08/27 01:50:00;;;;;;;8.30;5.88;;;20.90;74.20;;;;;;5035238;28;20485;-73
2022/08/27 01:52:28;;;;;;;7.60;5.60;;;20.90;74.10;;;;;;5035249;28;20482;-74
2022/08/27 01:54:53;;;;;;;6.10;5.22;;;20.90;74.10;;;;;;5035330;28;20017;-75
2022/08/27 01:57:20;;;;;;;6.15;5.18;;;20.80;73.50;;;;;;5035086;28;20048;-73
2022/08/27 01:59:46;;;;;;;5.50;4.90;;;20.80;73.50;;;;;;5034192;28;20047;-73
2022/08/27 02:02:15;;;;;;;6.50;5.60;;;20.70;73.50;;;;;;5035283;28;20021;-73
2022/08/27 02:04:41;;;;;;;5.75;5.00;;;20.70;73.60;;;;;;5035099;28;20049;-73
2022/08/27 02:07:07;;;;;;;6.65;5.93;;;20.70;73.70;;;;;;5034945;28;20026;-74
2022/08/27 02:09:33;;;;;;;8.02;5.38;;;20.70;73.70;;;;;;5035038;28;20390;-74
2022/08/27 02:12:00;;;;;;;7.00;5.72;;;20.70;73.70;;;;;;5034957;28;20029;-74
2022/08/27 02:14:26;;;;;;;6.18;5.05;;;20.60;73.70;;;;;;5017340;28;20252;-73
2022/08/27 02:16:52;;;;;;;6.30;5.68;;;20.60;73.80;;;;;;5036965;28;20082;-73
2022/08/27 02:19:18;;;;;;;5.85;5.25;;;20.60;73.80;;;;;;5035091;28;20057;-73
2022/08/27 02:21:43;;;;;;;7.22;5.53;;;20.60;74.00;;;;;;5035314;28;20021;-73
2022/08/27 02:24:09;;;;;;;5.88;5.28;;;20.50;74.10;;;;;;5034711;28;20104;-74
2022/08/27 02:26:35;;;;;;;5.97;5.35;;;20.50;74.30;;;;;;5034697;28;20057;-74
2022/08/27 02:29:00;;;;;;;6.55;5.45;;;20.50;74.50;;;;;;5035226;28;20030;-73
2022/08/27 02:31:26;;;;;;;7.50;6.38;;;20.40;74.60;;;;;;5034998;28;20047;-73
2022/08/27 02:33:52;;;;;;;7.72;6.10;;;20.50;75.90;;;;;;5034722;28;20474;-73
2022/08/27 02:36:18;;;;;;;6.95;5.55;;;20.40;75.10;;;;;;5034594;28;20025;-73
2022/08/27 02:38:43;;;;;;;7.15;5.90;;;20.40;75.20;;;;;;5034584;28;20105;-74
2022/08/27 02:41:09;;;;;;;7.05;5.88;;;20.30;75.40;;;;;;5034593;28;20110;-73
2022/08/27 02:43:35;;;;;;;7.90;5.88;;;20.30;75.60;;;;;;5034232;28;20539;-73
2022/08/27 02:46:02;;;;;;;9.60;6.65;;;20.30;75.70;;;;;;5016689;28;20116;-73
2022/08/27 02:48:27;;;;;;;7.18;6.47;;;20.30;75.70;;;;;;5034280;28;20382;-73
2022/08/27 02:50:53;;;;;;;7.95;5.93;;;20.30;75.80;;;;;;5034326;28;20029;-74
2022/08/27 02:53:19;;;;;;;7.35;6.00;;;20.30;75.90;;;;;;5033949;28;20041;-73
2022/08/27 02:55:45;;;;;;;8.38;6.65;;;20.30;76.00;;;;;;5034243;28;20045;-73
2022/08/27 02:58:14;;;;;;;7.45;6.38;;;20.30;76.70;;;;;;5016821;28;20088;-73
2022/08/27 03:00:40;;;;;;;8.95;6.78;;;20.30;76.50;;;;;;5033835;28;20045;-73
2022/08/27 03:03:05;;;;;;;8.55;6.88;;;20.30;76.40;;;;;;5034213;28;20076;-73
2022/08/27 03:05:31;;;;;;;7.63;6.82;;;20.30;76.40;;;;;;5034174;28;20026;-73
2022/08/27 03:07:58;;;;;;;8.18;7.07;;;20.30;76.70;;;;;;5034001;28;20477;-73
2022/08/27 03:10:23;;;;;;;8.00;7.20;;;20.20;76.80;;;;;;5033693;28;20083;-73
2022/08/27 03:12:49;;;;;;;7.65;6.90;;;20.20;77.00;;;;;;5033864;28;20037;-74
2022/08/27 03:15:17;;;;;;;8.45;7.05;;;20.20;77.00;;;;;;5033937;28;20018;-73
2022/08/27 03:20:27;;;;;;;11.15;7.25;;;20.20;76.80;;;;;;5033839;28;20087;-73
2022/08/27 03:22:53;;;;;;;8.40;6.70;;;20.20;76.50;;;;;;5033791;28;20025;-74
2022/08/27 03:25:19;;;;;;;9.55;6.85;;;20.10;76.40;;;;;;5033723;28;20528;-73
2022/08/27 03:27:45;;;;;;;11.70;7.07;;;20.00;76.60;;;;;;5033516;28;20047;-73
2022/08/27 03:30:15;;;;;;;9.25;6.80;;;19.90;76.80;;;;;;5033576;28;20029;-73
2022/08/27 03:32:41;;;;;;;8.88;7.00;;;19.90;77.10;;;;;;5033586;28;20080;-73
2022/08/27 03:35:08;;;;;;;8.95;6.55;;;19.80;77.30;;;;;;5033431;28;20026;-73
2022/08/27 03:37:34;;;;;;;8.60;6.40;;;19.80;77.20;;;;;;5033282;28;20044;-73
2022/08/27 03:39:59;;;;;;;8.38;5.88;;;19.80;77.10;;;;;;5033358;28;20063;-73
2022/08/27 03:42:25;;;;;;;7.45;6.57;;;19.90;77.10;;;;;;5033229;28;20097;-73
2022/08/27 03:44:50;;;;;;;6.90;6.20;;;19.90;77.10;;;;;;5015509;28;20386;-73
2022/08/27 03:47:17;;;;;;;7.95;7.15;;;19.90;77.00;;;;;;5033082;28;20080;-73
2022/08/27 03:49:43;;;;;;;9.88;7.50;;;20.00;77.10;;;;;;5033102;28;20539;-73
2022/08/27 03:52:09;;;;;;;8.95;8.10;;;19.90;78.20;;;;;;5033084;28;20080;-73
2022/08/27 03:54:36;;;;;;;9.80;7.72;;;19.90;77.50;;;;;;5032990;28;20026;-73
2022/08/27 03:57:01;;;;;;;10.95;8.20;;;19.80;77.60;;;;;;5033148;28;20032;-73
2022/08/27 03:59:27;;;;;;;9.70;7.85;;;19.70;78.00;;;;;;5032849;28;20126;-73
2022/08/27 04:01:53;;;;;;;9.90;7.13;;;19.70;77.90;;;;;;5033044;28;20032;-73
2022/08/27 04:04:18;;;;;;;8.10;7.30;;;19.70;78.00;;;;;;5032747;28;20029;-73
2022/08/27 04:06:44;;;;;;;10.00;7.45;;;19.70;78.00;;;;;;5033130;28;20022;-73
2022/08/27 04:09:10;;;;;;;10.05;7.72;;;19.70;78.00;;;;;;5036470;28;20036;-74
2022/08/27 04:11:35;;;;;;;10.10;8.32;;;19.80;78.80;;;;;;5033803;28;20112;-75
2022/08/27 04:14:05;;;;;;;8.15;7.18;;;19.80;77.90;;;;;;5033122;28;20033;-74
2022/08/27 04:16:33;;;;;;;8.30;7.40;;;19.90;77.80;;;;;;5032912;28;20079;-73
2022/08/27 04:18:58;;;;;;;9.00;7.28;;;19.90;77.60;;;;;;5032830;28;20086;-73
2022/08/27 04:21:24;;;;;;;9.05;6.97;;;20.00;77.60;;;;;;5032755;28;20106;-74
2022/08/27 04:23:50;;;;;;;10.35;8.45;;;20.00;77.50;;;;;;5037016;28;20029;-74
2022/08/27 04:26:16;;;;;;;11.65;7.70;;;20.10;77.40;;;;;;5036925;28;20024;-73
2022/08/27 04:28:42;;;;;;;9.38;7.93;;;20.10;77.50;;;;;;5037010;28;20121;-73
2022/08/27 04:31:08;;;;;;;9.32;8.32;;;20.10;78.40;;;;;;5018980;28;20120;-73
2022/08/27 04:33:34;;;;;;;11.48;8.30;;;20.10;77.60;;;;;;5036821;28;20056;-73
2022/08/27 04:36:02;;;;;;;8.73;7.90;;;20.10;77.80;;;;;;5036801;28;20034;-73
2022/08/27 04:38:28;;;;;;;9.80;7.72;;;20.00;77.70;;;;;;5036528;28;20037;-73
2022/08/27 04:43:38;;;;;;;9.65;8.38;;;19.90;77.90;;;;;;5036256;28;20091;-73
2022/08/27 04:46:04;;;;;;;10.68;8.05;;;20.00;78.00;;;;;;5036559;28;20026;-73
2022/08/27 04:48:30;;;;;;;10.45;8.85;;;19.90;78.20;;;;;;5036555;28;20027;-72
2022/08/27 04:50:55;;;;;;;10.35;8.40;;;19.90;78.50;;;;;;5036551;28;20025;-73
2022/08/27 04:53:21;;;;;;;12.73;9.85;;;20.00;78.50;;;;;;5036409;28;20033;-72
2022/08/27 04:55:52;;;;;;;10.02;7.82;;;20.00;78.40;;;;;;5036424;28;20125;-73
2022/08/27 04:58:19;;;;;;;9.05;8.15;;;20.00;78.40;;;;;;5036289;28;20037;-73
2022/08/27 05:00:50;;;;;;;13.02;9.15;;;20.00;78.30;;;;;;5036167;28;20049;-73
2022/08/27 05:03:18;;;;;;;10.20;8.75;;;20.10;78.30;;;;;;5036291;28;20013;-73
2022/08/27 05:05:46;;;;;;;10.52;9.43;;;20.10;78.10;;;;;;5036402;28;20022;-74
2022/08/27 05:08:12;;;;;;;10.98;9.85;;;20.10;78.00;;;;;;5036157;28;20017;-73
2022/08/27 05:10:42;;;;;;;10.50;9.40;;;20.10;78.00;;;;;;5036147;28;20055;-73
2022/08/27 05:13:08;;;;;;;12.05;10.38;;;20.10;78.00;;;;;;5036124;28;20497;-73
2022/08/27 05:15:34;;;;;;;14.80;11.75;;;20.20;78.10;;;;;;5036072;28;20060;-73
2022/08/27 05:18:01;;;;;;;14.18;10.98;;;20.10;78.40;;;;;;5036162;28;20033;-73
2022/08/27 05:20:28;;;;;;;12.13;10.00;;;20.10;78.40;;;;;;5018346;28;20029;-74
2022/08/27 05:22:55;;;;;;;14.32;11.23;;;20.10;78.40;;;;;;5035862;28;20053;-73
2022/08/27 05:25:21;;;;;;;14.60;12.43;;;20.10;78.60;;;;;;5035918;28;20026;-73
2022/08/27 05:27:47;;;;;;;15.95;12.15;;;20.10;79.00;;;;;;5035948;28;20104;-73
2022/08/27 05:30:12;;;;;;;16.38;12.05;;;19.90;79.60;;;;;;5035742;28;20049;-72
2022/08/27 05:32:38;;;;;;;13.80;11.15;;;19.80;80.00;;;;;;5035369;28;20397;-73
2022/08/27 05:35:05;;;;;;;14.63;11.27;;;19.80;80.20;;;;;;5034503;28;20423;-73
2022/08/27 05:37:32;;;;;;;13.25;11.82;;;19.80;79.90;;;;;;5017702;28;20057;-73
2022/08/27 05:39:59;;;;;;;16.17;13.15;;;19.80;80.10;;;;;;5035582;28;20104;-73
2022/08/27 05:42:25;;;;;;;13.73;11.82;;;19.90;79.90;;;;;;5035368;28;20029;-73
2022/08/27 05:44:51;;;;;;;15.93;12.95;;;19.90;79.80;;;;;;5035502;28;20028;-73
2022/08/27 05:47:17;;;;;;;15.35;12.50;;;19.90;80.20;;;;;;5035460;28;20109;-72
2022/08/27 05:49:44;;;;;;;19.27;13.95;;;20.00;80.40;;;;;;5035480;28;20022;-73
2022/08/27 05:52:11;;;;;;;18.25;13.73;;;20.00;80.30;;;;;;5035395;28;20045;-72
2022/08/27 05:54:38;;;;;;;21.02;16.33;;;20.00;80.40;;;;;;5035258;28;20026;-73
2022/08/27 05:57:04;;;;;;;18.42;14.32;;;19.90;81.20;;;;;;5035321;28;20095;-74
2022/08/27 06:02:14;;;;;;;22.38;16.80;;;19.70;82.70;;;;;;5035413;28;20159;-75
2022/08/27 06:04:39;;;;;;;15.77;13.27;;;19.70;83.10;;;;;;5035111;28;20052;-74
2022/08/27 06:07:09;;;;;;;19.45;14.30;;;19.70;83.20;;;;;;5035063;28;20061;-73
2022/08/27 06:09:35;;;;;;;20.13;14.77;;;19.70;83.30;;;;;;5034929;28;20018;-74
2022/08/27 06:12:01;;;;;;;19.00;13.48;;;19.70;83.60;;;;;;5034877;28;20557;-73
2022/08/27 06:14:27;;;;;;;21.98;15.88;;;19.80;83.50;;;;;;5034869;28;20422;-73
2022/08/27 06:16:53;;;;;;;18.45;15.45;;;19.80;83.70;;;;;;5034575;28;20057;-73
2022/08/27 06:19:18;;;;;;;20.75;16.35;;;19.80;83.80;;;;;;5017196;28;20098;-73
2022/08/27 06:21:44;;;;;;;19.80;16.63;;;19.70;84.30;;;;;;5034645;28;20674;-73
2022/08/27 06:24:11;;;;;;;20.10;15.98;;;19.50;84.90;;;;;;5016722;28;20117;-73
2022/08/27 06:26:38;;;;;;;18.55;14.98;;;19.50;85.20;;;;;;5016960;28;20081;-73
2022/08/27 06:29:06;;;;;;;18.58;14.90;;;19.30;85.60;;;;;;5034447;28;20072;-73
2022/08/27 06:31:33;;;;;;;18.25;15.73;;;19.20;86.30;;;;;;5034410;28;20481;-73
2022/08/27 06:34:01;;;;;;;17.00;14.85;;;19.20;86.10;;;;;;5034266;28;20026;-76
2022/08/27 06:36:28;;;;;;;17.88;15.20;;;19.30;85.90;;;;;;5034463;28;20053;-73
2022/08/27 06:38:54;;;;;;;18.17;15.27;;;19.40;85.90;;;;;;5034397;28;20425;-73
2022/08/27 06:41:22;;;;;;;19.95;16.02;;;19.40;85.60;;;;;;5034194;28;20017;-73
2022/08/27 06:43:47;;;;;;;17.88;13.77;;;19.50;85.30;;;;;;5034117;28;20059;-74
2022/08/27 06:46:17;;;;;;;27.02;18.05;;;19.60;85.30;;;;;;5033757;28;20057;-73
2022/08/27 06:48:47;;;;;;;23.65;18.45;;;19.60;84.40;;;;;;5033983;28;20112;-72
2022/08/27 06:51:18;;;;;;;23.27;19.05;;;19.50;84.40;;;;;;5034165;28;20524;-73
2022/08/27 06:53:46;;;;;;;22.90;17.10;;;19.60;84.40;;;;;;5016177;28;20402;-73
2022/08/27 06:56:13;;;;;;;22.80;18.83;;;19.70;84.50;;;;;;5034037;28;20072;-74
2022/08/27 06:58:40;;;;;;;24.73;19.23;;;19.70;84.70;;;;;;5016357;28;20033;-73
2022/08/27 07:01:21;;;;;;;31.63;21.38;;;19.60;85.50;;;;;;5033710;28;20092;-73
2022/08/27 07:03:46;;;;;;;25.02;19.38;;;19.60;84.40;;;;;;5016108;28;20488;-76
2022/08/27 07:06:15;;;;;;;24.88;18.05;;;19.60;84.40;;;;;;5034120;28;20033;-77
2022/08/27 07:08:41;;;;;;;32.22;21.58;;;19.50;85.00;;;;;;5033831;28;20017;-75
2022/08/27 07:11:09;;;;;;;29.10;19.17;;;19.30;86.30;;;;;;5033967;28;20049;-76
2022/08/27 07:13:36;;;;;;;25.15;18.33;;;19.30;85.90;;;;;;5033799;28;20033;-76
2022/08/27 07:16:07;;;;;;;27.13;15.50;;;19.40;85.40;;;;;;5033743;28;20473;-76
2022/08/27 07:18:33;;;;;;;22.42;15.93;;;19.60;84.80;;;;;;5015720;28;20386;-75
2022/08/27 07:20:59;;;;;;;25.70;18.10;;;19.80;83.60;;;;;;5033614;28;20021;-76
2022/08/27 07:23:25;;;;;;;21.98;14.73;;;20.00;82.40;;;;;;5033756;28;20059;-78
2022/08/27 07:25:51;;;;;;;19.70;14.43;;;20.30;81.70;;;;;;5033865;28;20057;-79
2022/08/27 07:28:17;;;;;;;23.20;16.98;;;20.50;79.90;;;;;;5033493;28;20025;-80
2022/08/27 07:30:43;;;;;;;21.05;16.17;;;20.80;79.10;;;;;;5033611;28;20545;-75
2022/08/27 07:33:09;;;;;;;21.42;16.00;;;20.90;78.20;;;;;;5015617;28;20129;-75
2022/08/27 07:35:34;;;;;;;23.58;17.38;;;21.00;78.10;;;;;;5033358;28;20020;-75
2022/08/27 07:38:00;;;;;;;23.33;18.00;;;21.10;77.40;;;;;;5033331;28;20033;-76
2022/08/27 07:40:25;;;;;;;23.30;18.10;;;21.20;77.00;;;;;;5033001;28;20104;-75
2022/08/27 07:45:44;;;;;;;24.65;17.85;;;21.10;76.20;;;;;;5033507;28;20085;-78
2022/08/27 07:48:10;;;;;;;20.43;16.93;;;21.20;76.50;;;;;;5033067;28;20025;-78
2022/08/27 07:50:36;;;;;;;19.42;16.45;;;21.20;76.20;;;;;;5015157;28;20124;-80
2022/08/27 07:53:01;;;;;;;22.90;17.75;;;21.30;75.60;;;;;;5033091;28;20452;-80
2022/08/27 07:55:27;;;;;;;23.58;18.42;;;21.20;76.30;;;;;;5032700;28;20087;-78
2022/08/27 07:57:53;;;;;;;22.83;15.32;;;21.30;75.30;;;;;;5032224;28;20112;-80
2022/08/27 08:00:20;;;;;;;22.38;16.88;;;21.30;75.40;;;;;;5032685;28;20555;-80
2022/08/27 08:02:46;;;;;;;19.77;15.52;;;21.30;75.10;;;;;;5015364;28;20030;-76
2022/08/27 08:05:15;;;;;;;21.88;17.08;;;21.30;74.90;;;;;;5032881;28;20030;-76
2022/08/27 08:07:41;;;;;;;24.90;16.88;;;21.40;74.80;;;;;;5032812;28;20025;-77
2022/08/27 08:10:09;;;;;;;23.55;15.93;;;21.40;74.50;;;;;;5032937;28;20018;-77
2022/08/27 08:12:38;;;;;;;24.63;17.63;;;21.40;74.50;;;;;;5032773;28;20045;-78
2022/08/27 08:15:06;;;;;;;20.55;14.82;;;21.50;74.60;;;;;;5033003;28;20045;-78
2022/08/27 08:17:33;;;;;;;20.63;16.75;;;21.60;74.40;;;;;;5033088;28;20030;-77
2022/08/27 08:19:59;;;;;;;18.70;15.40;;;21.70;74.40;;;;;;5032414;28;20022;-80
2022/08/27 08:22:26;;;;;;;22.33;16.67;;;21.70;74.00;;;;;;5032346;28;20037;-77
2022/08/27 08:24:52;;;;;;;26.00;17.90;;;21.70;73.80;;;;;;5032302;28;20021;-81
2022/08/27 08:27:19;;;;;;;20.85;16.25;;;21.80;73.50;;;;;;5032668;28;20117;-80
2022/08/27 08:29:45;;;;;;;20.92;14.88;;;21.90;73.30;;;;;;5032512;28;20014;-78
2022/08/27 08:32:11;;;;;;;26.67;17.00;;;22.00;72.50;;;;;;5032674;28;20359;-76
2022/08/27 08:34:37;;;;;;;19.17;14.75;;;22.10;71.30;;;;;;5032465;28;20220;-75
2022/08/27 08:37:04;;;;;;;19.20;14.48;;;22.20;71.20;;;;;;5032482;28;20068;-79
2022/08/27 08:39:29;;;;;;;19.85;16.00;;;22.50;70.80;;;;;;5032524;28;20477;-79
2022/08/27 08:41:58;;;;;;;20.48;14.73;;;22.80;69.30;;;;;;5032831;28;20044;-80
2022/08/27 08:44:41;;;;;;;18.70;15.80;;;22.90;68.20;;;;;;5034620;28;20025;-75
2022/08/27 08:47:18;;;;;;;17.63;13.98;;;23.10;67.60;;;;;;5046157;28;20484;-78
2022/08/27 08:49:50;;;;;;;16.88;14.00;;;23.30;67.50;;;;;;5043372;28;20090;-81
2022/08/27 08:52:38;;;;;;;15.88;12.90;;;23.40;66.70;;;;;;5035499;28;20159;-79
2022/08/27 08:55:33;;;;;;;16.88;12.77;;;23.60;66.90;;;;;;5015825;28;20038;-81
2022/08/27 08:58:09;;;;;;;17.85;14.43;;;23.80;66.10;;;;;;5032856;28;20063;-76
2022/08/27 09:00:38;;;;;;;16.17;12.98;;;23.80;64.50;;;;;;5033625;28;20394;-82
2022/08/27 09:03:04;;;;;;;15.40;12.23;;;24.00;65.10;;;;;;5033380;28;20014;-82
2022/08/27 09:05:29;;;;;;;17.25;13.15;;;24.10;63.90;;;;;;5032856;28;20079;-81
2022/08/27 09:08:12;;;;;;;15.00;12.38;;;24.30;63.30;;;;;;5015475;28;20404;-78
2022/08/27 09:10:42;;;;;;;17.00;12.20;;;24.30;62.70;;;;;;5036148;28;20470;-79
2022/08/27 09:13:20;;;;;;;14.82;11.30;;;24.40;62.60;;;;;;5036058;28;20110;-80
2022/08/27 09:15:46;;;;;;;14.98;12.15;;;24.50;62.40;;;;;;5036030;28;20056;-76
2022/08/27 09:18:15;;;;;;;13.60;10.95;;;24.60;62.30;;;;;;5036313;28;20172;-78
2022/08/27 09:20:45;;;;;;;13.88;12.48;;;24.50;62.20;;;;;;5036864;28;20323;-79
2022/08/27 09:23:18;;;;;;;15.52;12.63;;;24.50;61.50;;;;;;5037801;28;20053;-75
2022/08/27 09:25:44;;;;;;;16.58;12.77;;;24.60;61.30;;;;;;5039067;28;20029;-78
2022/08/27 09:31:08;;;;;;;19.20;14.00;;;24.50;61.30;;;;;;5039584;28;20032;-79
2022/08/27 09:33:35;;;;;;;16.13;13.07;;;24.10;62.60;;;;;;5036885;28;20116;-78
2022/08/27 09:36:02;;;;;;;14.30;11.95;;;24.10;62.90;;;;;;5037390;28;20020;-76
2022/08/27 09:38:33;;;;;;;15.48;12.52;;;24.20;62.40;;;;;;5037215;28;20032;-76
2022/08/27 09:41:02;;;;;;;15.25;12.30;;;24.20;62.00;;;;;;5037497;28;20064;-81
2022/08/27 09:43:30;;;;;;;15.02;11.55;;;24.20;61.90;;;;;;5037418;28;20025;-80
2022/08/27 09:46:19;;;;;;;15.43;13.18;;;24.30;62.10;;;;;;5044994;28;20018;-79
2022/08/27 09:48:44;;;;;;;16.65;11.90;;;24.40;62.00;;;;;;5019494;28;20025;-83
2022/08/27 09:51:13;;;;;;;12.98;10.95;;;24.50;61.30;;;;;;5035582;28;20033;-75
2022/08/27 09:53:46;;;;;;;10.32;9.30;;;24.50;60.70;;;;;;5035770;28;20085;-80
2022/08/27 09:56:31;;;;;;;12.93;10.48;;;24.60;60.20;;;;;;5035331;28;20017;-80
2022/08/27 09:59:00;;;;;;;15.90;12.32;;;24.70;59.80;;;;;;5035182;28;20441;-75
2022/08/27 10:01:30;;;;;;;16.60;13.98;;;24.80;58.60;;;;;;5035417;28;20033;-81
2022/08/27 10:04:11;;;;;;;14.20;11.00;;;24.50;59.60;;;;;;5035351;28;20017;-79
2022/08/27 10:06:43;;;;;;;14.70;10.10;;;24.50;59.90;;;;;;5035084;28;20497;-76
2022/08/27 10:09:33;;;;;;;17.30;11.43;;;24.60;59.40;;;;;;5034967;28;20029;-75
2022/08/27 10:12:04;;;;;;;11.25;9.98;;;24.60;56.60;;;;;;5034599;28;20030;-76
2022/08/27 10:14:35;;;;;;;11.65;9.88;;;24.60;57.50;;;;;;5035077;28;20426;-77
2022/08/27 10:17:14;;;;;;;12.50;10.40;;;24.80;57.70;;;;;;5034705;28;20112;-83
2022/08/27 10:19:46;;;;;;;13.07;10.88;;;24.60;58.10;;;;;;5034001;28;20021;-76
2022/08/27 10:22:33;;;;;;;10.75;9.65;;;24.70;57.60;;;;;;5034572;28;20029;-74
2022/08/27 10:25:14;;;;;;;12.10;9.30;;;24.90;56.80;;;;;;5034357;28;20580;-74
2022/08/27 10:28:04;;;;;;;10.65;9.65;;;25.30;55.90;;;;;;5034479;28;20035;-74
2022/08/27 10:30:40;;;;;;;12.70;11.05;;;25.60;55.20;;;;;;5034518;28;20044;-75
2022/08/27 10:33:19;;;;;;;11.95;9.65;;;25.70;53.90;;;;;;5034800;28;20038;-74
2022/08/27 10:35:50;;;;;;;17.42;13.23;;;25.80;53.80;;;;;;5034423;28;20030;-75
2022/08/27 10:38:35;;;;;;;16.80;12.35;;;25.10;56.10;;;;;;5034346;28;20022;-76
2022/08/27 10:41:16;;;;;;;12.43;10.55;;;24.70;56.60;;;;;;5016569;28;20474;-77
2022/08/27 10:43:55;;;;;;;15.93;12.27;;;24.70;57.30;;;;;;5034221;28;20025;-76
2022/08/27 10:46:38;;;;;;;14.57;12.07;;;24.40;58.10;;;;;;5034057;28;20026;-77
2022/08/27 10:49:13;;;;;;;13.93;11.93;;;24.40;58.70;;;;;;5034370;28;20029;-81
2022/08/27 10:51:45;;;;;;;15.82;12.35;;;24.30;58.50;;;;;;5034252;28;20022;-81
2022/08/27 10:54:29;;;;;;;15.80;12.27;;;24.50;58.20;;;;;;5034538;28;20112;-83
2022/08/27 10:57:13;;;;;;;15.77;11.65;;;24.90;57.00;;;;;;5034283;28;20104;-76
2022/08/27 11:00:12;;;;;;;13.77;11.40;;;25.00;56.40;;;;;;5033878;28;20520;-75
2022/08/27 11:02:45;;;;;;;10.45;9.25;;;25.30;55.00;;;;;;5016431;28;20040;-83
2022/08/27 11:05:23;;;;;;;16.40;12.05;;;25.40;54.30;;;;;;5034028;28;20117;-76
2022/08/27 11:07:55;;;;;;;15.75;11.55;;;25.20;55.20;;;;;;5034073;28;20496;-77
2022/08/27 11:10:27;;;;;;;12.25;10.77;;;24.80;56.60;;;;;;5033997;28;20171;-76
2022/08/27 11:12:57;;;;;;;15.23;12.50;;;25.00;56.20;;;;;;5033933;28;20108;-76
2022/08/27 11:15:40;;;;;;;11.43;10.18;;;25.20;55.20;;;;;;5033881;28;20025;-76
2022/08/27 11:18:37;;;;;;;12.95;10.45;;;25.30;54.60;;;;;;5033929;28;20093;-74
2022/08/27 11:21:13;;;;;;;12.30;9.50;;;25.30;54.90;;;;;;5033606;28;20029;-75
2022/08/27 11:23:48;;;;;;;12.48;9.43;;;25.50;54.70;;;;;;5035071;28;20036;-76
2022/08/27 11:26:14;;;;;;;;;;;25.60;54.10;;;;;;5043609;28;20021;-75
2022/08/27 11:28:53;;;;;;;13.25;10.85;;;25.80;54.10;;;;;;5018499;28;19912;-75
2022/08/27 11:31:48;;;;;;;12.07;9.95;;;25.70;54.80;;;;;;5033633;28;20030;-76
2022/08/27 11:34:34;;;;;;;12.10;10.90;;;25.70;54.80;;;;;;5023555;28;20084;-78
2022/08/27 11:37:06;;;;;;;;;;;25.70;55.10;;;;;;5001860;28;20030;-82
2022/08/27 11:39:47;;;;;;;12.15;10.25;;;25.70;55.40;;;;;;4997172;28;19905;-76
2022/08/27 11:42:17;;;;;;;15.70;10.77;;;25.70;56.00;;;;;;5014134;28;20026;-77
2022/08/27 11:44:46;;;;;;;15.27;11.73;;;25.70;56.50;;;;;;5013805;28;20025;-79
2022/08/27 11:47:24;;;;;;;13.30;11.95;;;25.70;56.70;;;;;;5013617;28;20112;-75
2022/08/27 11:49:55;;;;;;;16.83;12.13;;;25.70;56.80;;;;;;5013561;28;20026;-75
2022/08/27 11:52:28;;;;;;;12.88;11.10;;;25.60;57.40;;;;;;5013229;28;20034;-76
2022/08/27 11:55:13;;;;;;;11.80;10.13;;;25.40;57.90;;;;;;5013033;28;20026;-75
2022/08/27 11:57:39;;;;;;;15.90;12.80;;;25.50;57.90;;;;;;4995723;28;20029;-75
2022/08/27 12:00:26;;;;;;;15.55;12.02;;;25.50;58.40;;;;;;5013063;28;20074;-77
2022/08/27 12:03:00;;;;;;;12.13;10.68;;;25.60;58.30;;;;;;5013351;28;20076;-75
2022/08/27 12:05:43;;;;;;;12.30;11.00;;;25.60;57.90;;;;;;5013302;28;20018;-73
2022/08/27 12:08:24;;;;;;;13.65;11.05;;;25.70;57.50;;;;;;5013240;28;20079;-74
2022/08/27 12:11:05;;;;;;;12.50;11.25;;;25.60;57.30;;;;;;4995061;28;20026;-74
2022/08/27 12:14:04;;;;;;;12.73;10.93;;;25.60;57.30;;;;;;5012791;28;20030;-74
2022/08/27 12:16:48;;;;;;;12.57;10.18;;;25.70;57.20;;;;;;5012873;28;20080;-76
2022/08/27 12:19:40;;;;;;;12.40;9.32;;;25.80;57.00;;;;;;4995599;28;20058;-75
2022/08/27 12:22:30;;;;;;;12.88;9.80;;;25.90;56.90;;;;;;5013153;28;20459;-76
2022/08/27 12:24:58;;;;;;;13.63;10.60;;;25.90;56.60;;;;;;5013054;28;20037;-74
2022/08/27 12:27:23;;;;;;;13.65;11.68;;;26.00;56.90;;;;;;5013373;28;20054;-75
2022/08/27 12:29:59;;;;;;;12.43;11.13;;;26.00;56.80;;;;;;4995552;28;20045;-74
2022/08/27 12:32:27;;;;;;;14.10;12.60;;;25.90;56.70;;;;;;5012795;28;20633;-75
2022/08/27 12:35:14;;;;;;;16.35;11.40;;;25.80;57.40;;;;;;5013039;28;20033;-76
2022/08/27 12:38:20;;;;;;;10.20;8.98;;;25.70;58.00;;;;;;5013248;28;20108;-76
2022/08/27 12:40:52;;;;;;;7.60;6.80;;;26.00;57.20;;;;;;5012801;28;20030;-75
2022/08/27 12:43:25;;;;;;;7.45;6.55;;;26.20;56.10;;;;;;5015037;28;20029;-76
2022/08/27 12:45:59;;;;;;;5.97;5.35;;;26.40;55.20;;;;;;5017468;28;20021;-76
2022/08/27 12:48:36;;;;;;;6.27;5.67;;;26.50;54.20;;;;;;5027683;28;20494;-81
2022/08/27 12:51:07;;;;;;;5.75;5.05;;;26.20;55.00;;;;;;5021035;28;20022;-78
2022/08/27 12:53:54;;;;;;;6.13;5.53;;;26.10;55.20;;;;;;5038474;28;20034;-76
2022/08/27 12:56:48;;;;;;;5.53;5.03;;;26.20;55.60;;;;;;5039687;28;20028;-74
2022/08/27 12:59:43;;;;;;;4.78;4.38;;;26.10;55.80;;;;;;5039665;28;20033;-75
2022/08/27 13:02:12;;;;;;;5.32;4.55;;;26.00;55.60;;;;;;5038002;28;20033;-75
2022/08/27 13:04:41;;;;;;;5.07;4.57;;;25.90;55.90;;;;;;5020402;28;20046;-73
2022/08/27 13:07:06;;;;;;;4.78;4.32;;;25.70;55.80;;;;;;5033735;28;20407;-75